McGrath, Alaska
Current Conditions -  °F | °C
As of 9:53 PM on Sunday 23 Nov 2014 (Local Time) from PAMC Reporting Station
Overcast Overcast  
Wind Chill: -16°   Ceiling: 8500
Heat Index: -12°   Visibility: 10mi
Dew Point: -18°   Wind: 5mph
Humidity: 61%   Direction: 120°ESE
Pressure: 29.64"   Gusts: NA
Location:  62.96°N, 155.6°W
Report Text: PAMC 240653Z AUTO 12004KT 10SM OVC085 M12/M18 A2964 RMK AO2 SLP047 T11171178 TSNO
Loading
Personal Weather Stations






























Interactive Weather Map New forecast layout! Learn more

10-Day Weather Forecast

Advertisements
Track Severe Weather on mobile